LLM1993 URWW-USKK
Flight info
| Callsign | LLM1993 |
|---|---|
| Flight time | 1h 38m |
| Altitude | 37000 |
| Route | RODUN1F RODUN R807 UROBO P135 DAFOS P165 KODUG N604 OGSIN T646 ASTAK ASTAK3L |
| Aircraft | A320/M-SDE3FGHIRWY/LB1 |
Departure
| Time | 2026-05-04 18:59 |
|---|---|
| Airport | Volgograd International Airport (URWW) |
Arrival
| Time | 2026-05-04 20:37 |
|---|---|
| Airport | Pobedilovo Airport (USKK) |
| Time | Latitude | Longitude | Altitude | Speed | Heading |
|---|---|---|---|---|---|
| 2026-05-04 18:10 | 48.79092 | 44.35558 | 459 ft | 0 kts | 340° |
| 2026-05-04 18:41 | 48.79085 | 44.35562 | 486 ft | 3 kts | 340° |
| 2026-05-04 18:41 | 48.79069 | 44.35571 | 481 ft | 3 kts | 340° |
| 2026-05-04 18:42 | 48.79053 | 44.35581 | 482 ft | 2 kts | 313° |
| 2026-05-04 18:42 | 48.79043 | 44.35602 | 478 ft | 2 kts | 263° |
| 2026-05-04 18:42 | 48.79048 | 44.35625 | 483 ft | 1 kts | 245° |
| 2026-05-04 18:44 | 48.79048 | 44.35624 | 482 ft | 0 kts | 245° |
| 2026-05-04 18:44 | 48.79047 | 44.35622 | 482 ft | 0 kts | 245° |
| 2026-05-04 18:44 | 48.79042 | 44.35604 | 478 ft | 2 kts | 245° |
| 2026-05-04 18:44 | 48.79034 | 44.35578 | 478 ft | 4 kts | 245° |
| 2026-05-04 18:45 | 48.79021 | 44.35533 | 480 ft | 6 kts | 245° |
| 2026-05-04 18:45 | 48.79001 | 44.35467 | 481 ft | 8 kts | 245° |
| 2026-05-04 18:45 | 48.78982 | 44.35404 | 481 ft | 0 kts | 245° |
| 2026-05-04 18:46 | 48.78981 | 44.35399 | 482 ft | 0 kts | 255° |
| 2026-05-04 18:47 | 48.78981 | 44.35387 | 484 ft | 1 kts | 266° |
| 2026-05-04 18:47 | 48.78980 | 44.35365 | 483 ft | 3 kts | 265° |
| 2026-05-04 18:47 | 48.78972 | 44.35322 | 486 ft | 6 kts | 253° |
| 2026-05-04 18:47 | 48.78956 | 44.35253 | 483 ft | 8 kts | 249° |
| 2026-05-04 18:48 | 48.78933 | 44.35164 | 479 ft | 8 kts | 248° |
| 2026-05-04 18:48 | 48.78892 | 44.35087 | 485 ft | 10 kts | 223° |
| 2026-05-04 18:48 | 48.78860 | 44.35008 | 483 ft | 9 kts | 251° |
| 2026-05-04 18:48 | 48.78837 | 44.34915 | 480 ft | 9 kts | 249° |
| 2026-05-04 18:49 | 48.78814 | 44.34823 | 483 ft | 9 kts | 249° |
| 2026-05-04 18:49 | 48.78790 | 44.34724 | 483 ft | 11 kts | 249° |
| 2026-05-04 18:49 | 48.78763 | 44.34618 | 481 ft | 10 kts | 249° |
| 2026-05-04 18:49 | 48.78737 | 44.34511 | 487 ft | 12 kts | 248° |
| 2026-05-04 18:50 | 48.78706 | 44.34391 | 481 ft | 13 kts | 248° |
| 2026-05-04 18:50 | 48.78671 | 44.34256 | 483 ft | 12 kts | 249° |
| 2026-05-04 18:50 | 48.78627 | 44.34151 | 483 ft | 12 kts | 208° |
| 2026-05-04 18:50 | 48.78568 | 44.34157 | 481 ft | 11 kts | 166° |
| 2026-05-04 18:51 | 48.78483 | 44.34190 | 482 ft | 12 kts | 165° |
| 2026-05-04 18:51 | 48.78401 | 44.34167 | 479 ft | 13 kts | 232° |
| 2026-05-04 18:51 | 48.78364 | 44.34051 | 478 ft | 12 kts | 244° |
| 2026-05-04 18:51 | 48.78323 | 44.33919 | 471 ft | 13 kts | 244° |
| 2026-05-04 18:52 | 48.78278 | 44.33778 | 473 ft | 14 kts | 244° |
| 2026-05-04 18:52 | 48.78234 | 44.33639 | 470 ft | 16 kts | 244° |
| 2026-05-04 18:52 | 48.78184 | 44.33482 | 466 ft | 18 kts | 244° |
| 2026-05-04 18:52 | 48.78137 | 44.33336 | 462 ft | 18 kts | 244° |
| 2026-05-04 18:53 | 48.78088 | 44.33181 | 457 ft | 17 kts | 244° |
| 2026-05-04 18:53 | 48.78036 | 44.33015 | 452 ft | 15 kts | 244° |
| 2026-05-04 18:53 | 48.77987 | 44.32860 | 447 ft | 16 kts | 244° |
| 2026-05-04 18:53 | 48.77937 | 44.32704 | 438 ft | 19 kts | 244° |
| 2026-05-04 18:54 | 48.77886 | 44.32543 | 430 ft | 15 kts | 244° |
| 2026-05-04 18:54 | 48.77833 | 44.32379 | 424 ft | 17 kts | 244° |
| 2026-05-04 18:54 | 48.77782 | 44.32218 | 425 ft | 15 kts | 244° |
| 2026-05-04 18:54 | 48.77732 | 44.32060 | 423 ft | 16 kts | 244° |
| 2026-05-04 18:55 | 48.77684 | 44.31909 | 419 ft | 7 kts | 244° |
| 2026-05-04 18:55 | 48.77610 | 44.31776 | 408 ft | 11 kts | 182° |
| 2026-05-04 18:55 | 48.77597 | 44.31780 | 410 ft | 0 kts | 164° |
| 2026-05-04 18:57 | 48.77594 | 44.31782 | 412 ft | 2 kts | 162° |
| 2026-05-04 18:57 | 48.77566 | 44.31799 | 409 ft | 8 kts | 156° |
| 2026-05-04 18:57 | 48.77507 | 44.31842 | 415 ft | 8 kts | 153° |
| 2026-05-04 18:57 | 48.77499 | 44.31897 | 415 ft | 6 kts | 73° |
| 2026-05-04 18:58 | 48.77503 | 44.31911 | 415 ft | 1 kts | 64° |
| 2026-05-04 18:58 | 48.77505 | 44.31917 | 415 ft | 6 kts | 64° |
| 2026-05-04 18:58 | 48.77592 | 44.32192 | 418 ft | 60 kts | 64° |
| 2026-05-04 18:58 | 48.77867 | 44.33058 | 446 ft | 118 kts | 64° |
| 2026-05-04 18:59 | 48.78281 | 44.34377 | 518 ft | 156 kts | 66° |
| 2026-05-04 18:59 | 48.78723 | 44.35856 | 1052 ft | 155 kts | 65° |
| 2026-05-04 18:59 | 48.79186 | 44.37358 | 1547 ft | 158 kts | 64° |
| 2026-05-04 18:59 | 48.79666 | 44.38871 | 2094 ft | 159 kts | 64° |
| 2026-05-04 19:00 | 48.80138 | 44.40369 | 2688 ft | 156 kts | 63° |
| 2026-05-04 19:00 | 48.80613 | 44.41853 | 3208 ft | 158 kts | 63° |
| 2026-05-04 19:00 | 48.81138 | 44.43373 | 3613 ft | 169 kts | 53° |
| 2026-05-04 19:00 | 48.82168 | 44.44410 | 3834 ft | 193 kts | 23° |
| 2026-05-04 19:01 | 48.83483 | 44.45307 | 4088 ft | 220 kts | 28° |
| 2026-05-04 19:01 | 48.84917 | 44.46425 | 4491 ft | 243 kts | 29° |
| 2026-05-04 19:01 | 48.86438 | 44.47654 | 5253 ft | 251 kts | 30° |
| 2026-05-04 19:01 | 48.87984 | 44.48913 | 6151 ft | 254 kts | 30° |
| 2026-05-04 19:02 | 48.89551 | 44.50188 | 7011 ft | 258 kts | 30° |
| 2026-05-04 19:02 | 48.91152 | 44.51487 | 7779 ft | 264 kts | 30° |
| 2026-05-04 19:02 | 48.92787 | 44.52815 | 8547 ft | 270 kts | 30° |
| 2026-05-04 19:02 | 48.94472 | 44.54183 | 8929 ft | 277 kts | 30° |
| 2026-05-04 19:03 | 48.96175 | 44.55562 | 9019 ft | 278 kts | 30° |
| 2026-05-04 19:03 | 48.97882 | 44.56947 | 9112 ft | 280 kts | 30° |
| 2026-05-04 19:03 | 48.99608 | 44.58348 | 9932 ft | 282 kts | 30° |
| 2026-05-04 19:03 | 49.01378 | 44.59786 | 10427 ft | 298 kts | 30° |
| 2026-05-04 19:04 | 49.03280 | 44.61334 | 10691 ft | 320 kts | 30° |
| 2026-05-04 19:04 | 49.05277 | 44.62957 | 11278 ft | 329 kts | 30° |
| 2026-05-04 19:04 | 49.07313 | 44.64609 | 12004 ft | 334 kts | 29° |
| 2026-05-04 19:04 | 49.09376 | 44.66285 | 12752 ft | 338 kts | 29° |
| 2026-05-04 19:05 | 49.11466 | 44.67985 | 13508 ft | 343 kts | 29° |
| 2026-05-04 19:05 | 49.13581 | 44.69712 | 14218 ft | 347 kts | 29° |
| 2026-05-04 19:05 | 49.15714 | 44.71459 | 14931 ft | 349 kts | 29° |
| 2026-05-04 19:05 | 49.17862 | 44.73219 | 15653 ft | 351 kts | 29° |
| 2026-05-04 19:06 | 49.20024 | 44.74992 | 16355 ft | 354 kts | 29° |
| 2026-05-04 19:06 | 49.22202 | 44.76779 | 17047 ft | 357 kts | 29° |
| 2026-05-04 19:06 | 49.24396 | 44.78579 | 17747 ft | 359 kts | 29° |
| 2026-05-04 19:06 | 49.26608 | 44.80394 | 18433 ft | 362 kts | 29° |
| 2026-05-04 19:07 | 49.28833 | 44.82222 | 19035 ft | 365 kts | 29° |
| 2026-05-04 19:07 | 49.31081 | 44.84071 | 19653 ft | 369 kts | 29° |
| 2026-05-04 19:07 | 49.33350 | 44.85938 | 20317 ft | 372 kts | 30° |
| 2026-05-04 19:07 | 49.35607 | 44.87801 | 20974 ft | 374 kts | 30° |
| 2026-05-04 19:08 | 49.37908 | 44.89704 | 21619 ft | 377 kts | 30° |
| 2026-05-04 19:08 | 49.40227 | 44.91625 | 22252 ft | 380 kts | 30° |
| 2026-05-04 19:08 | 49.42561 | 44.93557 | 22894 ft | 383 kts | 30° |
| 2026-05-04 19:08 | 49.44915 | 44.95510 | 23521 ft | 386 kts | 30° |
| 2026-05-04 19:09 | 49.47292 | 44.97484 | 24047 ft | 390 kts | 30° |
| 2026-05-04 19:09 | 49.49689 | 44.99475 | 24531 ft | 394 kts | 30° |
| 2026-05-04 19:09 | 49.52116 | 45.01492 | 25006 ft | 399 kts | 29° |
| 2026-05-04 19:09 | 49.54570 | 45.03531 | 25468 ft | 403 kts | 29° |
| 2026-05-04 19:10 | 49.57056 | 45.05598 | 25929 ft | 408 kts | 29° |
| 2026-05-04 19:10 | 49.59565 | 45.07691 | 26382 ft | 412 kts | 28° |
| 2026-05-04 19:10 | 49.62100 | 45.09811 | 26830 ft | 417 kts | 28° |
| 2026-05-04 19:10 | 49.64659 | 45.11956 | 27273 ft | 421 kts | 28° |
| 2026-05-04 19:11 | 49.67305 | 45.13930 | 27712 ft | 425 kts | 20° |
| 2026-05-04 19:11 | 49.70134 | 45.15308 | 28141 ft | 429 kts | 15° |
| 2026-05-04 19:11 | 49.73020 | 45.16559 | 28562 ft | 433 kts | 15° |
| 2026-05-04 19:11 | 49.75934 | 45.17821 | 28990 ft | 436 kts | 15° |
| 2026-05-04 19:12 | 49.78869 | 45.19097 | 29415 ft | 440 kts | 15° |
| 2026-05-04 19:12 | 49.84794 | 45.21688 | 30260 ft | 445 kts | 15° |
| 2026-05-04 19:12 | 49.87781 | 45.22999 | 30589 ft | 447 kts | 15° |
| 2026-05-04 19:13 | 49.90776 | 45.24315 | 31019 ft | 447 kts | 15° |
| 2026-05-04 19:13 | 49.93763 | 45.25632 | 31488 ft | 446 kts | 14° |
| 2026-05-04 19:13 | 49.96746 | 45.26951 | 31932 ft | 446 kts | 14° |
| 2026-05-04 19:13 | 49.99688 | 45.28255 | 32374 ft | 445 kts | 14° |
| 2026-05-04 19:14 | 50.02667 | 45.29558 | 32812 ft | 445 kts | 13° |
| 2026-05-04 19:14 | 50.05669 | 45.30719 | 33250 ft | 444 kts | 11° |
| 2026-05-04 19:14 | 50.08687 | 45.31752 | 33694 ft | 444 kts | 9° |
| 2026-05-04 19:14 | 50.11710 | 45.32720 | 34128 ft | 443 kts | 9° |
| 2026-05-04 19:15 | 50.14733 | 45.33668 | 34500 ft | 443 kts | 9° |
| 2026-05-04 19:15 | 50.17751 | 45.34630 | 34864 ft | 443 kts | 9° |
| 2026-05-04 19:15 | 50.20771 | 45.35617 | 35219 ft | 443 kts | 10° |
| 2026-05-04 19:15 | 50.23788 | 45.36628 | 35571 ft | 443 kts | 10° |
| 2026-05-04 19:16 | 50.26804 | 45.37660 | 35922 ft | 443 kts | 10° |
| 2026-05-04 19:16 | 50.29814 | 45.38703 | 36267 ft | 443 kts | 11° |
| 2026-05-04 19:16 | 50.32823 | 45.39756 | 36601 ft | 443 kts | 11° |
| 2026-05-04 19:16 | 50.35831 | 45.40808 | 36916 ft | 443 kts | 11° |
| 2026-05-04 19:17 | 50.38852 | 45.41858 | 37019 ft | 445 kts | 11° |
| 2026-05-04 19:17 | 50.44911 | 45.43938 | 37039 ft | 446 kts | 10° |
| 2026-05-04 19:18 | 50.50982 | 45.46023 | 37028 ft | 446 kts | 10° |
| 2026-05-04 19:18 | 50.57047 | 45.48116 | 37040 ft | 446 kts | 11° |
| 2026-05-04 19:19 | 50.63099 | 45.50216 | 37025 ft | 445 kts | 11° |
| 2026-05-04 19:19 | 50.69147 | 45.52322 | 37038 ft | 445 kts | 11° |
| 2026-05-04 19:20 | 50.75198 | 45.54433 | 37044 ft | 446 kts | 11° |
| 2026-05-04 19:20 | 50.81252 | 45.56551 | 37051 ft | 446 kts | 11° |
| 2026-05-04 19:21 | 50.87307 | 45.58721 | 37045 ft | 445 kts | 11° |
| 2026-05-04 19:21 | 50.93348 | 45.60908 | 37033 ft | 445 kts | 11° |
| 2026-05-04 19:22 | 50.99386 | 45.63091 | 37050 ft | 445 kts | 11° |
| 2026-05-04 19:22 | 51.05297 | 45.66032 | 37051 ft | 447 kts | 23° |
| 2026-05-04 19:23 | 51.10923 | 45.70247 | 37047 ft | 447 kts | 23° |
| 2026-05-04 19:23 | 51.16547 | 45.74473 | 37035 ft | 447 kts | 23° |
| 2026-05-04 19:24 | 51.22136 | 45.78676 | 37032 ft | 447 kts | 23° |
| 2026-05-04 19:24 | 51.27758 | 45.82915 | 37040 ft | 447 kts | 23° |
| 2026-05-04 19:25 | 51.33380 | 45.87164 | 37025 ft | 447 kts | 23° |
| 2026-05-04 19:25 | 51.39007 | 45.91422 | 37023 ft | 447 kts | 23° |
| 2026-05-04 19:26 | 51.44625 | 45.95701 | 37026 ft | 447 kts | 23° |
| 2026-05-04 19:26 | 51.50243 | 45.99999 | 37035 ft | 447 kts | 23° |
| 2026-05-04 19:27 | 51.55905 | 46.04110 | 37024 ft | 445 kts | 16° |
| 2026-05-04 19:27 | 51.61912 | 46.06205 | 37024 ft | 442 kts | 7° |
| 2026-05-04 19:28 | 51.67966 | 46.07921 | 37019 ft | 442 kts | 8° |
| 2026-05-04 19:28 | 51.74021 | 46.09671 | 37018 ft | 442 kts | 8° |
| 2026-05-04 19:29 | 51.80082 | 46.11418 | 37022 ft | 442 kts | 7° |
| 2026-05-04 19:29 | 51.86141 | 46.13154 | 37025 ft | 442 kts | 8° |
| 2026-05-04 19:30 | 51.92197 | 46.14909 | 37024 ft | 442 kts | 8° |
| 2026-05-04 19:30 | 51.98258 | 46.16674 | 37025 ft | 442 kts | 8° |
| 2026-05-04 19:31 | 52.04322 | 46.18421 | 37023 ft | 442 kts | 8° |
| 2026-05-04 19:31 | 52.10374 | 46.20172 | 37021 ft | 442 kts | 8° |
| 2026-05-04 19:32 | 52.16424 | 46.21939 | 37019 ft | 442 kts | 8° |
| 2026-05-04 19:32 | 52.22472 | 46.23705 | 37026 ft | 441 kts | 8° |
| 2026-05-04 19:33 | 52.28511 | 46.25471 | 37023 ft | 441 kts | 8° |
| 2026-05-04 19:33 | 52.34551 | 46.27246 | 37039 ft | 441 kts | 8° |
| 2026-05-04 19:34 | 52.40588 | 46.29024 | 37028 ft | 440 kts | 8° |
| 2026-05-04 19:34 | 52.46617 | 46.30806 | 37025 ft | 440 kts | 8° |
| 2026-05-04 19:35 | 52.51619 | 46.32290 | 37023 ft | 440 kts | 8° |
| 2026-05-04 19:35 | 52.57635 | 46.34077 | 37020 ft | 439 kts | 8° |
| 2026-05-04 19:36 | 52.63652 | 46.35874 | 37025 ft | 439 kts | 8° |
| 2026-05-04 19:36 | 52.69672 | 46.37672 | 37029 ft | 439 kts | 8° |
| 2026-05-04 19:37 | 52.75672 | 46.39478 | 37022 ft | 438 kts | 8° |
| 2026-05-04 19:37 | 52.81665 | 46.41274 | 37019 ft | 438 kts | 8° |
| 2026-05-04 19:38 | 52.87657 | 46.43069 | 37016 ft | 437 kts | 8° |
| 2026-05-04 19:38 | 52.93644 | 46.44875 | 37014 ft | 437 kts | 8° |
| 2026-05-04 19:39 | 52.99628 | 46.46685 | 37018 ft | 437 kts | 8° |
| 2026-05-04 19:39 | 53.05617 | 46.48509 | 37013 ft | 437 kts | 8° |
| 2026-05-04 19:40 | 53.11596 | 46.50336 | 37008 ft | 437 kts | 8° |
| 2026-05-04 19:40 | 53.17569 | 46.52166 | 37004 ft | 436 kts | 8° |
| 2026-05-04 19:41 | 53.23542 | 46.53997 | 36996 ft | 436 kts | 8° |
| 2026-05-04 19:41 | 53.29513 | 46.55835 | 37006 ft | 436 kts | 8° |
| 2026-05-04 19:42 | 53.35485 | 46.57686 | 37000 ft | 436 kts | 8° |
| 2026-05-04 19:42 | 53.41454 | 46.59536 | 37007 ft | 435 kts | 8° |
| 2026-05-04 19:43 | 53.47407 | 46.61371 | 36996 ft | 435 kts | 8° |
| 2026-05-04 19:43 | 53.53317 | 46.63219 | 36996 ft | 434 kts | 8° |
| 2026-05-04 19:44 | 53.59254 | 46.65135 | 37003 ft | 434 kts | 8° |
| 2026-05-04 19:44 | 53.65187 | 46.67052 | 36997 ft | 434 kts | 8° |
| 2026-05-04 19:45 | 53.71116 | 46.68959 | 36992 ft | 433 kts | 8° |
| 2026-05-04 19:45 | 53.77037 | 46.70865 | 36993 ft | 433 kts | 8° |
| 2026-05-04 19:46 | 53.82960 | 46.72733 | 36985 ft | 432 kts | 8° |
| 2026-05-04 19:46 | 53.88879 | 46.74532 | 37008 ft | 432 kts | 8° |
| 2026-05-04 19:47 | 53.94799 | 46.76325 | 36995 ft | 431 kts | 8° |
| 2026-05-04 19:47 | 54.00702 | 46.78148 | 36990 ft | 431 kts | 8° |
| 2026-05-04 19:48 | 54.06596 | 46.80000 | 36983 ft | 431 kts | 8° |
| 2026-05-04 19:48 | 54.12446 | 46.81888 | 36966 ft | 430 kts | 8° |
| 2026-05-04 19:49 | 54.18336 | 46.83783 | 36964 ft | 430 kts | 8° |
| 2026-05-04 19:49 | 54.24216 | 46.85681 | 36976 ft | 430 kts | 8° |
| 2026-05-04 19:50 | 54.30073 | 46.87733 | 36972 ft | 430 kts | 10° |
| 2026-05-04 19:50 | 54.35899 | 46.89986 | 36968 ft | 429 kts | 10° |
| 2026-05-04 19:51 | 54.41723 | 46.92240 | 36966 ft | 429 kts | 10° |
| 2026-05-04 19:51 | 54.47551 | 46.94438 | 36955 ft | 429 kts | 10° |
| 2026-05-04 19:52 | 54.53372 | 46.96633 | 36971 ft | 428 kts | 10° |
| 2026-05-04 19:52 | 54.59187 | 46.98846 | 36965 ft | 427 kts | 10° |
| 2026-05-04 19:53 | 54.64989 | 47.01055 | 36963 ft | 426 kts | 10° |
| 2026-05-04 19:53 | 54.70832 | 47.02450 | 36956 ft | 423 kts | 2° |
| 2026-05-04 19:54 | 54.76702 | 47.03203 | 36944 ft | 423 kts | 2° |
| 2026-05-04 19:54 | 54.82566 | 47.03983 | 36941 ft | 423 kts | 2° |
| 2026-05-04 19:55 | 54.88428 | 47.04754 | 36956 ft | 423 kts | 2° |
| 2026-05-04 19:55 | 54.94256 | 47.05513 | 36937 ft | 422 kts | 2° |
| 2026-05-04 19:56 | 55.00113 | 47.06278 | 36933 ft | 422 kts | 2° |
| 2026-05-04 19:56 | 55.05962 | 47.07046 | 36928 ft | 421 kts | 2° |
| 2026-05-04 19:57 | 55.11812 | 47.07822 | 36929 ft | 421 kts | 2° |
| 2026-05-04 19:57 | 55.17665 | 47.08596 | 36925 ft | 421 kts | 2° |
| 2026-05-04 19:58 | 55.23511 | 47.09369 | 36916 ft | 421 kts | 2° |
| 2026-05-04 19:58 | 55.29355 | 47.10152 | 36913 ft | 421 kts | 2° |
| 2026-05-04 19:59 | 55.35195 | 47.10930 | 36910 ft | 421 kts | 2° |
| 2026-05-04 19:59 | 55.41036 | 47.11702 | 36914 ft | 421 kts | 2° |
| 2026-05-04 20:00 | 55.46875 | 47.12490 | 36912 ft | 420 kts | 2° |
| 2026-05-04 20:00 | 55.52711 | 47.13277 | 36910 ft | 420 kts | 2° |
| 2026-05-04 20:01 | 55.58542 | 47.14062 | 36923 ft | 420 kts | 2° |
| 2026-05-04 20:01 | 55.64325 | 47.14865 | 36909 ft | 419 kts | 2° |
| 2026-05-04 20:02 | 55.70149 | 47.15674 | 36906 ft | 419 kts | 2° |
| 2026-05-04 20:02 | 55.75963 | 47.16457 | 36903 ft | 419 kts | 2° |
| 2026-05-04 20:03 | 55.81781 | 47.17249 | 36899 ft | 419 kts | 2° |
| 2026-05-04 20:03 | 55.87592 | 47.18057 | 36897 ft | 419 kts | 2° |
| 2026-05-04 20:04 | 55.93404 | 47.18874 | 36919 ft | 419 kts | 2° |
| 2026-05-04 20:04 | 55.99206 | 47.19672 | 36919 ft | 418 kts | 2° |
| 2026-05-04 20:05 | 56.05006 | 47.20467 | 36914 ft | 418 kts | 2° |
| 2026-05-04 20:05 | 56.10801 | 47.21266 | 36908 ft | 417 kts | 1° |
| 2026-05-04 20:06 | 56.16600 | 47.22068 | 36907 ft | 417 kts | 1° |
| 2026-05-04 20:06 | 56.22387 | 47.22881 | 36899 ft | 417 kts | 1° |
| 2026-05-04 20:07 | 56.28173 | 47.23703 | 36899 ft | 417 kts | 1° |
| 2026-05-04 20:07 | 56.33955 | 47.24515 | 36880 ft | 417 kts | 1° |
| 2026-05-04 20:08 | 56.39697 | 47.25313 | 36878 ft | 416 kts | 1° |
| 2026-05-04 20:08 | 56.45473 | 47.26134 | 36875 ft | 416 kts | 1° |
| 2026-05-04 20:09 | 56.51242 | 47.26960 | 36870 ft | 416 kts | 1° |
| 2026-05-04 20:09 | 56.57020 | 47.27782 | 36864 ft | 416 kts | 1° |
| 2026-05-04 20:10 | 56.62801 | 47.28604 | 36859 ft | 417 kts | 1° |
| 2026-05-04 20:10 | 56.68577 | 47.29433 | 36880 ft | 416 kts | 1° |
| 2026-05-04 20:11 | 56.74352 | 47.30279 | 36879 ft | 416 kts | 1° |
| 2026-05-04 20:11 | 56.80119 | 47.31111 | 36876 ft | 416 kts | 1° |
| 2026-05-04 20:12 | 56.85894 | 47.31932 | 36871 ft | 415 kts | 1° |
| 2026-05-04 20:12 | 56.91664 | 47.32773 | 36434 ft | 420 kts | 1° |
| 2026-05-04 20:12 | 56.94618 | 47.33205 | 35470 ft | 429 kts | 2° |
| 2026-05-04 20:13 | 56.97571 | 47.33641 | 35181 ft | 422 kts | 2° |
| 2026-05-04 20:13 | 57.00467 | 47.34070 | 34953 ft | 414 kts | 2° |
| 2026-05-04 20:13 | 57.03315 | 47.34484 | 34709 ft | 407 kts | 1° |
| 2026-05-04 20:13 | 57.06115 | 47.34891 | 34466 ft | 400 kts | 1° |
| 2026-05-04 20:14 | 57.08870 | 47.35294 | 34226 ft | 394 kts | 1° |
| 2026-05-04 20:14 | 57.11583 | 47.35693 | 33987 ft | 388 kts | 1° |
| 2026-05-04 20:14 | 57.14260 | 47.36082 | 33732 ft | 384 kts | 1° |
| 2026-05-04 20:14 | 57.16875 | 47.36460 | 33455 ft | 380 kts | 1° |
| 2026-05-04 20:15 | 57.19505 | 47.36841 | 33184 ft | 378 kts | 1° |
| 2026-05-04 20:15 | 57.22123 | 47.37222 | 32907 ft | 377 kts | 1° |
| 2026-05-04 20:15 | 57.24734 | 47.37603 | 32637 ft | 375 kts | 1° |
| 2026-05-04 20:15 | 57.27323 | 47.37981 | 32331 ft | 372 kts | 0° |
| 2026-05-04 20:16 | 57.29898 | 47.38261 | 31877 ft | 370 kts | 359° |
| 2026-05-04 20:16 | 57.32467 | 47.38428 | 31437 ft | 369 kts | 358° |
| 2026-05-04 20:16 | 57.35032 | 47.38536 | 31000 ft | 368 kts | 357° |
| 2026-05-04 20:16 | 57.37589 | 47.38629 | 30571 ft | 368 kts | 357° |
| 2026-05-04 20:17 | 57.40142 | 47.38732 | 30148 ft | 368 kts | 357° |
| 2026-05-04 20:17 | 57.42699 | 47.38854 | 29686 ft | 367 kts | 357° |
| 2026-05-04 20:17 | 57.45247 | 47.39212 | 29262 ft | 369 kts | 7° |
| 2026-05-04 20:17 | 57.47698 | 47.40727 | 28844 ft | 376 kts | 21° |
| 2026-05-04 20:18 | 57.49883 | 47.43468 | 28428 ft | 384 kts | 37° |
| 2026-05-04 20:18 | 57.51622 | 47.47307 | 28009 ft | 394 kts | 53° |
| 2026-05-04 20:18 | 57.52837 | 47.51913 | 27579 ft | 398 kts | 61° |
| 2026-05-04 20:18 | 57.53955 | 47.56631 | 27135 ft | 399 kts | 61° |
| 2026-05-04 20:19 | 57.55070 | 47.61363 | 26694 ft | 399 kts | 62° |
| 2026-05-04 20:19 | 57.56180 | 47.66104 | 26235 ft | 400 kts | 62° |
| 2026-05-04 20:19 | 57.57293 | 47.70849 | 25788 ft | 400 kts | 62° |
| 2026-05-04 20:19 | 57.58410 | 47.75602 | 25314 ft | 401 kts | 62° |
| 2026-05-04 20:20 | 57.59527 | 47.80356 | 25030 ft | 397 kts | 62° |
| 2026-05-04 20:20 | 57.60624 | 47.85042 | 24734 ft | 394 kts | 62° |
| 2026-05-04 20:20 | 57.61344 | 47.88126 | 24379 ft | 389 kts | 62° |
| 2026-05-04 20:20 | 57.62419 | 47.92744 | 23674 ft | 386 kts | 62° |
| 2026-05-04 20:21 | 57.63484 | 47.97319 | 23018 ft | 379 kts | 63° |
| 2026-05-04 20:21 | 57.64513 | 48.01757 | 22559 ft | 368 kts | 63° |
| 2026-05-04 20:21 | 57.66540 | 48.10502 | 21626 ft | 367 kts | 62° |
| 2026-05-04 20:22 | 57.67552 | 48.14871 | 21161 ft | 366 kts | 63° |
| 2026-05-04 20:22 | 57.68557 | 48.19238 | 20707 ft | 366 kts | 63° |
| 2026-05-04 20:22 | 57.69561 | 48.23605 | 20226 ft | 366 kts | 63° |
| 2026-05-04 20:22 | 57.70567 | 48.27971 | 19764 ft | 366 kts | 63° |
| 2026-05-04 20:23 | 57.71570 | 48.32347 | 19295 ft | 366 kts | 63° |
| 2026-05-04 20:23 | 57.72574 | 48.36743 | 18645 ft | 367 kts | 63° |
| 2026-05-04 20:23 | 57.73566 | 48.41102 | 17926 ft | 361 kts | 63° |
| 2026-05-04 20:23 | 57.74712 | 48.45143 | 17113 ft | 352 kts | 50° |
| 2026-05-04 20:24 | 57.76364 | 48.48489 | 16310 ft | 341 kts | 34° |
| 2026-05-04 20:24 | 57.78290 | 48.50888 | 15538 ft | 335 kts | 27° |
| 2026-05-04 20:24 | 57.80286 | 48.53142 | 14758 ft | 333 kts | 27° |
| 2026-05-04 20:24 | 57.82262 | 48.55383 | 14006 ft | 331 kts | 28° |
| 2026-05-04 20:25 | 57.84231 | 48.57622 | 13232 ft | 329 kts | 28° |
| 2026-05-04 20:25 | 57.86181 | 48.59848 | 12471 ft | 326 kts | 28° |
| 2026-05-04 20:25 | 57.88101 | 48.62045 | 11999 ft | 322 kts | 28° |
| 2026-05-04 20:25 | 57.90012 | 48.64233 | 11597 ft | 321 kts | 28° |
| 2026-05-04 20:26 | 57.91921 | 48.66420 | 11204 ft | 321 kts | 28° |
| 2026-05-04 20:26 | 57.93824 | 48.68604 | 10799 ft | 320 kts | 28° |
| 2026-05-04 20:26 | 57.95721 | 48.70789 | 10435 ft | 319 kts | 28° |
| 2026-05-04 20:26 | 57.97595 | 48.72947 | 10052 ft | 308 kts | 28° |
| 2026-05-04 20:27 | 57.99377 | 48.75012 | 9711 ft | 295 kts | 28° |
| 2026-05-04 20:27 | 58.01110 | 48.77017 | 9231 ft | 288 kts | 28° |
| 2026-05-04 20:27 | 58.02815 | 48.78978 | 8862 ft | 287 kts | 28° |
| 2026-05-04 20:27 | 58.04525 | 48.80944 | 8495 ft | 288 kts | 28° |
| 2026-05-04 20:28 | 58.06226 | 48.82907 | 8128 ft | 286 kts | 29° |
| 2026-05-04 20:28 | 58.07926 | 48.84877 | 7767 ft | 287 kts | 29° |
| 2026-05-04 20:28 | 58.09627 | 48.86851 | 7392 ft | 284 kts | 29° |
| 2026-05-04 20:28 | 58.11299 | 48.88795 | 7029 ft | 281 kts | 29° |
| 2026-05-04 20:29 | 58.13034 | 48.90437 | 6670 ft | 278 kts | 18° |
| 2026-05-04 20:29 | 58.14840 | 48.91715 | 6304 ft | 277 kts | 18° |
| 2026-05-04 20:29 | 58.16644 | 48.93007 | 5923 ft | 277 kts | 19° |
| 2026-05-04 20:29 | 58.18440 | 48.94304 | 5548 ft | 276 kts | 19° |
| 2026-05-04 20:30 | 58.20230 | 48.95600 | 5181 ft | 275 kts | 19° |
| 2026-05-04 20:30 | 58.22009 | 48.96891 | 4818 ft | 273 kts | 19° |
| 2026-05-04 20:30 | 58.23757 | 48.98157 | 4456 ft | 271 kts | 19° |
| 2026-05-04 20:30 | 58.25522 | 48.99437 | 4091 ft | 272 kts | 19° |
| 2026-05-04 20:31 | 58.27289 | 49.00721 | 3843 ft | 269 kts | 19° |
| 2026-05-04 20:31 | 58.29002 | 49.01967 | 3784 ft | 258 kts | 20° |
| 2026-05-04 20:31 | 58.30644 | 49.03167 | 3716 ft | 247 kts | 20° |
| 2026-05-04 20:31 | 58.32215 | 49.04322 | 3651 ft | 236 kts | 20° |
| 2026-05-04 20:32 | 58.33708 | 49.05417 | 3582 ft | 225 kts | 19° |
| 2026-05-04 20:32 | 58.35131 | 49.06457 | 3489 ft | 214 kts | 19° |
| 2026-05-04 20:32 | 58.36491 | 49.07452 | 3397 ft | 206 kts | 20° |
| 2026-05-04 20:32 | 58.37776 | 49.08599 | 3304 ft | 204 kts | 35° |
| 2026-05-04 20:33 | 58.38793 | 49.10464 | 3160 ft | 201 kts | 46° |
| 2026-05-04 20:33 | 58.39715 | 49.12402 | 2944 ft | 195 kts | 47° |
| 2026-05-04 20:33 | 58.40612 | 49.14280 | 2751 ft | 188 kts | 47° |
| 2026-05-04 20:33 | 58.41461 | 49.16055 | 2568 ft | 172 kts | 47° |
| 2026-05-04 20:34 | 58.42229 | 49.17662 | 2442 ft | 157 kts | 47° |
| 2026-05-04 20:34 | 58.42957 | 49.19184 | 2357 ft | 153 kts | 47° |
| 2026-05-04 20:34 | 58.43665 | 49.20665 | 2217 ft | 148 kts | 47° |
| 2026-05-04 20:34 | 58.44357 | 49.22113 | 2015 ft | 146 kts | 47° |
| 2026-05-04 20:35 | 58.45039 | 49.23542 | 1821 ft | 145 kts | 47° |
| 2026-05-04 20:35 | 58.45717 | 49.24961 | 1640 ft | 144 kts | 47° |
| 2026-05-04 20:35 | 58.46391 | 49.26372 | 1433 ft | 143 kts | 47° |
| 2026-05-04 20:35 | 58.47063 | 49.27777 | 1232 ft | 143 kts | 47° |
| 2026-05-04 20:36 | 58.47733 | 49.29166 | 1040 ft | 142 kts | 47° |
| 2026-05-04 20:36 | 58.48380 | 49.30546 | 854 ft | 141 kts | 48° |
| 2026-05-04 20:36 | 58.49036 | 49.31937 | 661 ft | 140 kts | 47° |
| 2026-05-04 20:36 | 58.49694 | 49.33309 | 502 ft | 139 kts | 48° |
| 2026-05-04 20:37 | 58.50256 | 49.34498 | 486 ft | 97 kts | 47° |
| 2026-05-04 20:37 | 58.50600 | 49.35225 | 482 ft | 58 kts | 48° |
| 2026-05-04 20:37 | 58.50856 | 49.35764 | 483 ft | 49 kts | 48° |
| 2026-05-04 20:37 | 58.51022 | 49.36112 | 481 ft | 27 kts | 48° |
| 2026-05-04 20:38 | 58.51098 | 49.36314 | 484 ft | 14 kts | 72° |
| 2026-05-04 20:38 | 58.51143 | 49.36401 | 483 ft | 10 kts | 332° |
| 2026-05-04 20:38 | 58.51114 | 49.36303 | 482 ft | 11 kts | 219° |
| 2026-05-04 20:38 | 58.51053 | 49.36178 | 486 ft | 14 kts | 228° |
| 2026-05-04 20:39 | 58.50981 | 49.36025 | 486 ft | 18 kts | 228° |
| 2026-05-04 20:39 | 58.50891 | 49.35836 | 483 ft | 20 kts | 227° |
| 2026-05-04 20:39 | 58.50788 | 49.35620 | 485 ft | 23 kts | 227° |
| 2026-05-04 20:39 | 58.50677 | 49.35386 | 488 ft | 24 kts | 228° |
| 2026-05-04 20:40 | 58.50557 | 49.35133 | 484 ft | 27 kts | 227° |
| 2026-05-04 20:40 | 58.50435 | 49.34878 | 486 ft | 24 kts | 228° |
| 2026-05-04 20:40 | 58.50318 | 49.34628 | 487 ft | 26 kts | 228° |
| 2026-05-04 20:40 | 58.50230 | 49.34445 | 482 ft | 11 kts | 227° |
| 2026-05-04 20:41 | 58.50171 | 49.34321 | 484 ft | 14 kts | 227° |
| 2026-05-04 20:41 | 58.50103 | 49.34208 | 488 ft | 12 kts | 192° |
| 2026-05-04 20:41 | 58.50033 | 49.34300 | 482 ft | 10 kts | 137° |
| 2026-05-04 20:41 | 58.49977 | 49.34398 | 486 ft | 7 kts | 138° |
| 2026-05-04 20:42 | 58.49935 | 49.34469 | 483 ft | 10 kts | 138° |
| 2026-05-04 20:42 | 58.49896 | 49.34537 | 481 ft | 6 kts | 138° |
| 2026-05-04 20:42 | 58.49857 | 49.34539 | 482 ft | 5 kts | 188° |
| 2026-05-04 20:42 | 58.49834 | 49.34532 | 486 ft | 4 kts | 190° |
| 2026-05-04 20:43 | 58.49798 | 49.34521 | 481 ft | 7 kts | 193° |
| 2026-05-04 20:43 | 58.49761 | 49.34460 | 484 ft | 8 kts | 228° |
| 2026-05-04 20:43 | 58.49727 | 49.34388 | 481 ft | 6 kts | 229° |
| 2026-05-04 20:43 | 58.49721 | 49.34360 | 478 ft | 2 kts | 265° |
| 2026-05-04 20:44 | 58.49736 | 49.34334 | 485 ft | 4 kts | 326° |
| 2026-05-04 20:44 | 58.49753 | 49.34329 | 483 ft | 2 kts | 3° |
| 2026-05-04 20:44 | 58.49765 | 49.34347 | 485 ft | 2 kts | 46° |
| 2026-05-04 20:44 | 58.49775 | 49.34368 | 485 ft | 2 kts | 49° |
| 2026-05-04 20:45 | 58.49779 | 49.34376 | 486 ft | 1 kts | 47° |
| 2026-05-04 20:45 | 58.49781 | 49.34381 | 486 ft | 0 kts | 47° |
| 2026-05-04 20:45 | 58.49785 | 49.34389 | 486 ft | 0 kts | 48° |